Time;durP1;ratioP1;P1;durP2;ratioP2;P2;SDS_P1;SDS_P2;PMS_P1;PMS_P2;Temp;Humidity;BMP_temperature;BMP_pressure;BME280_temperature;BME280_humidity;BME280_pressure;Samples;Min_cycle;Max_cycle;Signal;HPM_P1;HPM_P2
2023/07/23 00:01:02;;;;;;;;;5.67;5.67;;;;;16.26;79.58;100779.53;5083642;28;9239;-66
2023/07/23 00:03:28;;;;;;;;;7.00;6.67;;;;;16.28;79.72;100780.13;5088713;28;9973;-66
2023/07/23 00:05:55;;;;;;;;;5.67;5.67;;;;;16.30;79.51;100774.47;5090062;28;9398;-66
2023/07/23 00:08:21;;;;;;;;;3.33;3.33;;;;;16.31;79.54;100778.84;5078292;28;9268;-66
2023/07/23 00:10:48;;;;;;;;;3.00;3.00;;;;;16.32;79.25;100767.72;5086056;28;9223;-66
2023/07/23 00:13:14;;;;;;;;;7.67;4.00;;;;;16.31;79.54;100776.94;5080657;28;9220;-66
2023/07/23 00:15:41;;;;;;;;;4.00;4.00;;;;;16.31;79.51;100760.66;5091399;28;9148;-66
2023/07/23 00:18:07;;;;;;;;;3.00;3.00;;;;;16.33;79.23;100763.16;5092565;28;9255;-66
2023/07/23 00:20:34;;;;;;;;;3.67;2.67;;;;;16.35;79.09;100761.00;5088831;28;9223;-66
2023/07/23 00:23:00;;;;;;;;;6.00;3.67;;;;;16.35;79.14;100758.28;5100802;28;9174;-66
2023/07/23 00:25:27;;;;;;;;;7.67;6.67;;;;;16.35;79.31;100760.19;5090965;28;9321;-66
2023/07/23 00:27:53;;;;;;;;;6.00;6.00;;;;;16.32;79.33;100756.03;5088600;28;9312;-66
2023/07/23 00:30:20;;;;;;;;;6.33;6.00;;;;;16.31;79.37;100757.94;5090018;28;9266;-66
2023/07/23 00:32:47;;;;;;;;;2.00;2.00;;;;;16.31;79.77;100749.78;5093766;28;9213;-66
2023/07/23 00:35:14;;;;;;;;;6.67;5.33;;;;;16.30;79.68;100753.56;5095591;28;9393;-66
2023/07/23 00:37:41;;;;;;;;;5.33;5.33;;;;;16.28;79.32;100750.25;5094196;28;9383;-66
2023/07/23 00:40:08;;;;;;;;;10.00;8.00;;;;;16.23;79.42;100750.13;5093129;28;9389;-66
2023/07/23 00:42:34;;;;;;;;;7.00;5.00;;;;;16.21;79.32;100748.72;5087427;28;9375;-65
2023/07/23 00:45:02;;;;;;;;;3.67;3.67;;;;;16.20;79.94;100745.16;5091185;28;9393;-65
2023/07/23 00:47:29;;;;;;;;;5.67;5.67;;;;;16.23;79.80;100733.81;5088404;28;9293;-66
2023/07/23 00:49:56;;;;;;;;;9.67;8.00;;;;;16.21;79.71;100737.84;5104284;28;9479;-66
2023/07/23 00:52:23;;;;;;;;;6.00;6.00;;;;;16.24;79.42;100737.38;5087303;28;9443;-67
2023/07/23 00:54:50;;;;;;;;;6.33;6.33;;;;;16.21;79.41;100738.69;5094629;28;9426;-67
2023/07/23 00:57:16;;;;;;;;;7.67;7.33;;;;;16.15;79.46;100723.31;5090533;28;9384;-66
2023/07/23 00:59:43;;;;;;;;;6.00;5.00;;;;;16.16;79.85;100719.53;5081516;28;9303;-66
2023/07/23 01:02:09;;;;;;;;;9.00;8.75;;;;;16.17;79.62;100729.34;5085878;28;9325;-66
2023/07/23 01:04:37;;;;;;;;;6.00;6.00;;;;;16.18;79.86;100722.03;5087431;28;9724;-67
2023/07/23 01:07:06;;;;;;;;;10.00;10.00;;;;;16.16;79.56;100708.66;5094573;28;9390;-66
2023/07/23 01:09:34;;;;;;;;;6.00;6.00;;;;;16.13;79.80;100708.31;5088378;28;10325;-67
2023/07/23 01:12:02;;;;;;;;;6.67;6.67;;;;;16.09;79.95;100699.00;5070430;28;9435;-66
2023/07/23 01:14:29;;;;;;;;;10.25;6.75;;;;;16.07;79.97;100702.75;5103870;28;9296;-65
2023/07/23 01:16:57;;;;;;;;;7.50;7.25;;;;;16.05;79.57;100702.16;5088533;28;9467;-66
2023/07/23 01:19:26;;;;;;;;;8.00;8.00;;;;;16.00;79.75;100706.63;5082256;28;9493;-67
2023/07/23 01:22:00;;;;;;;;;5.33;5.33;;;;;16.01;79.65;100700.16;5071121;28;9369;-66
2023/07/23 01:24:26;;;;;;;;;11.00;7.00;;;;;16.01;79.71;100692.03;5073652;28;9414;-67
2023/07/23 01:26:53;;;;;;;;;11.75;10.50;;;;;16.02;79.56;100696.38;5087783;28;9513;-67
2023/07/23 01:29:19;;;;;;;;;10.00;8.00;;;;;16.02;80.09;100697.19;5079853;28;9431;-66
2023/07/23 01:31:46;;;;;;;;;6.33;6.33;;;;;16.06;79.98;100687.53;5085442;28;9427;-66
2023/07/23 01:34:14;;;;;;;;;7.00;7.00;;;;;16.07;79.71;100689.19;5084517;28;10052;-66
2023/07/23 01:36:42;;;;;;;;;7.00;7.00;;;;;16.09;80.00;100685.41;5086478;28;9623;-66
2023/07/23 01:39:08;;;;;;;;;6.33;4.33;;;;;16.10;79.89;100679.75;5093192;28;9384;-67
2023/07/23 01:41:35;;;;;;;;;7.00;7.00;;;;;16.13;79.80;100683.88;5092685;28;9291;-67
2023/07/23 01:44:02;;;;;;;;;6.67;6.67;;;;;16.13;80.09;100679.28;5091869;28;9962;-67
2023/07/23 01:46:28;;;;;;;;;6.67;4.33;;;;;16.15;80.34;100674.44;5092164;28;10094;-66
2023/07/23 01:48:55;;;;;;;;;6.00;6.00;;;;;16.17;80.23;100666.88;5087245;28;9332;-67
2023/07/23 01:51:22;;;;;;;;;4.00;4.00;;;;;16.16;79.78;100670.63;5075539;28;9391;-67
2023/07/23 01:53:48;;;;;;;;;6.33;6.33;;;;;16.17;79.93;100663.34;5089664;28;10081;-66
2023/07/23 01:56:15;;;;;;;;;7.33;7.33;;;;;16.17;80.29;100666.88;5091835;28;9982;-67
2023/07/23 01:58:41;;;;;;;;;8.50;6.00;;;;;16.16;80.12;100659.78;5055567;28;9258;-67
2023/07/23 02:01:08;;;;;;;;;7.00;5.50;;;;;16.17;80.24;100658.75;5083073;28;9373;-67
2023/07/23 02:03:34;;;;;;;;;7.33;5.67;;;;;16.16;80.09;100653.53;5092284;28;9382;-65
2023/07/23 02:06:01;;;;;;;;;9.00;7.00;;;;;16.15;80.63;100646.44;5094702;28;9239;-66
2023/07/23 02:08:28;;;;;;;;;8.00;7.33;;;;;16.13;80.62;100643.97;5092475;28;9371;-67
2023/07/23 02:11:00;;;;;;;;;9.67;8.33;;;;;16.15;80.46;100647.28;5093184;28;9380;-66
2023/07/23 02:13:27;;;;;;;;;6.67;6.33;;;;;16.15;80.45;100641.84;5091819;28;9239;-66
2023/07/23 02:15:54;;;;;;;;;11.67;10.00;;;;;16.15;80.41;100639.13;5093278;28;9406;-67
2023/07/23 02:18:21;;;;;;;;;10.67;10.00;;;;;16.13;80.37;100633.13;5073111;28;9360;-66
2023/07/23 02:20:48;;;;;;;;;6.00;6.00;;;;;16.14;80.46;100631.22;5086969;28;9440;-66
2023/07/23 02:23:19;;;;;;;;;6.33;5.33;;;;;16.15;80.65;100630.16;5082662;28;9324;-67
2023/07/23 02:25:49;;;;;;;;;3.33;3.33;;;;;16.20;80.21;100627.56;5091301;28;9151;-65
2023/07/23 02:28:16;;;;;;;;;8.00;4.67;;;;;16.18;80.21;100624.25;5093026;28;9374;-66
2023/07/23 02:30:45;;;;;;;;;7.33;6.67;;;;;16.17;80.14;100626.16;5091676;28;9210;-67
2023/07/23 02:33:11;;;;;;;;;8.33;6.33;;;;;16.12;80.36;100617.03;5083152;28;9321;-65
2023/07/23 02:35:38;;;;;;;;;6.33;6.33;;;;;16.08;80.39;100600.41;5073031;28;10028;-66
2023/07/23 02:38:05;;;;;;;;;5.00;5.00;;;;;16.12;80.64;100604.28;5086365;28;9370;-67
2023/07/23 02:40:33;;;;;;;;;9.00;8.25;;;;;16.12;80.86;100604.28;5090215;28;9473;-66
2023/07/23 02:43:01;;;;;;;;;6.75;6.75;;;;;16.12;80.66;100604.28;5072533;28;10593;-67
2023/07/23 02:45:28;;;;;;;;;3.67;3.67;;;;;16.15;80.68;100597.56;5089464;28;9636;-66
2023/07/23 02:47:55;;;;;;;;;6.50;4.50;;;;;16.15;80.71;100597.56;5085428;28;9316;-66
2023/07/23 02:50:22;;;;;;;;;5.33;5.33;;;;;16.15;80.90;100586.72;5088846;28;9436;-65
2023/07/23 02:52:49;;;;;;;;;6.00;4.33;;;;;16.16;80.95;100588.34;5090523;28;9235;-65
2023/07/23 02:55:15;;;;;;;;;8.00;7.50;;;;;16.13;80.97;100588.84;5087716;28;9364;-66
2023/07/23 02:57:42;;;;;;;;;8.67;8.67;;;;;16.14;81.01;100577.72;5089042;28;9454;-66
2023/07/23 03:00:09;;;;;;;;;7.00;7.00;;;;;16.15;80.97;100575.84;5075535;28;9494;-65
2023/07/23 03:02:36;;;;;;;;;6.25;6.25;;;;;16.16;81.49;100574.78;5093130;28;9433;-66
2023/07/23 03:05:03;;;;;;;;;7.00;7.00;;;;;16.16;81.51;100562.00;5093470;28;10138;-66
2023/07/23 03:07:34;;;;;;;;;8.50;8.50;;;;;16.18;81.16;100557.19;5089920;28;9354;-67
2023/07/23 03:10:01;;;;;;;;;8.67;8.67;;;;;16.18;80.76;100554.47;5076785;28;9598;-68
2023/07/23 03:12:28;;;;;;;;;7.33;6.00;;;;;16.18;81.16;100548.22;5087364;28;9450;-66
2023/07/23 03:14:55;;;;;;;;;7.50;6.75;;;;;16.18;81.45;100540.88;5090807;28;9448;-66
2023/07/23 03:17:22;;;;;;;;;5.67;5.67;;;;;16.19;81.55;100536.28;5089140;28;9460;-66
2023/07/23 03:19:49;;;;;;;;;8.33;8.00;;;;;16.19;81.31;100542.53;5112867;27;9379;-66
2023/07/23 03:22:15;;;;;;;;;10.00;7.75;;;;;16.19;81.67;100539.81;5075338;28;9492;-66
2023/07/23 03:24:42;;;;;;;;;7.00;7.00;;;;;16.19;81.14;100531.69;5078077;28;9464;-67
2023/07/23 03:27:08;;;;;;;;;8.00;7.25;;;;;16.18;80.98;100532.75;5089536;28;9381;-66
2023/07/23 03:29:35;;;;;;;;;7.67;5.00;;;;;16.17;81.17;100525.66;5088452;28;9597;-66
2023/07/23 03:32:02;;;;;;;;;7.67;6.67;;;;;16.17;81.45;100519.41;5089764;28;9437;-65
2023/07/23 03:34:28;;;;;;;;;6.33;6.33;;;;;16.16;80.70;100525.88;5079345;28;9302;-67
2023/07/23 03:36:55;;;;;;;;;6.00;6.00;;;;;16.14;81.25;100520.72;5090525;28;9510;-67
2023/07/23 03:39:21;;;;;;;;;7.33;6.33;;;;;16.14;81.11;100515.28;5084161;28;9319;-66
2023/07/23 03:41:48;;;;;;;;;10.67;10.33;;;;;16.13;81.17;100512.81;5100383;28;9297;-66
2023/07/23 03:44:14;;;;;;;;;6.33;6.33;;;;;16.12;81.10;100501.09;5089304;28;9407;-67
2023/07/23 03:46:56;;;;;;;;;8.25;8.25;;;;;16.11;81.47;100506.78;5090029;28;9331;-67
2023/07/23 03:49:23;;;;;;;;;7.75;7.75;;;;;16.10;81.30;100499.72;5077139;28;9488;-67
2023/07/23 03:51:49;;;;;;;;;7.67;6.67;;;;;16.10;81.48;100497.81;5080971;28;9379;-67
2023/07/23 03:54:16;;;;;;;;;10.75;7.25;;;;;16.08;81.45;100489.06;5089929;28;9289;-67
2023/07/23 03:56:42;;;;;;;;;11.67;8.00;;;;;16.06;81.26;100488.50;5058010;28;9388;-67
2023/07/23 03:59:09;;;;;;;;;8.00;8.00;;;;;16.03;81.55;100488.97;5085775;28;10145;-66
2023/07/23 04:01:36;;;;;;;;;9.00;6.33;;;;;16.01;81.29;100486.50;5086144;28;9460;-65
2023/07/23 04:04:02;;;;;;;;;8.00;5.00;;;;;16.01;81.49;100478.34;5092582;28;10070;-66
2023/07/23 04:06:29;;;;;;;;;6.33;6.33;;;;;16.04;81.45;100486.03;5080587;28;9236;-66
2023/07/23 04:08:56;;;;;;;;;8.00;6.00;;;;;16.04;81.13;100479.75;5085934;28;9300;-66
2023/07/23 04:11:22;;;;;;;;;3.67;3.00;;;;;16.07;81.57;100482.00;5101559;28;9469;-66
2023/07/23 04:13:50;;;;;;;;;5.67;5.67;;;;;16.07;81.48;100480.09;5092796;28;9175;-66
2023/07/23 04:16:16;;;;;;;;;5.67;5.67;;;;;16.05;81.33;100465.94;5081048;28;9465;-65
2023/07/23 04:18:47;;;;;;;;;13.00;11.00;;;;;16.03;81.13;100469.97;5083234;28;9291;-66
2023/07/23 04:21:15;;;;;;;;;10.00;9.00;;;;;16.03;81.73;100465.34;5085919;28;9308;-66
2023/07/23 04:23:46;;;;;;;;;7.50;7.00;;;;;16.01;81.31;100456.63;5089287;28;9547;-66
2023/07/23 04:26:13;;;;;;;;;8.50;8.50;;;;;15.98;81.42;100462.53;5087464;28;10121;-66
2023/07/23 04:28:40;;;;;;;;;6.75;6.75;;;;;15.99;82.28;100460.66;5090093;28;10172;-67
2023/07/23 04:31:06;;;;;;;;;10.67;8.67;;;;;15.97;81.75;100455.47;5088730;28;9424;-67
2023/07/23 04:33:33;;;;;;;;;7.50;7.50;;;;;15.97;81.84;100465.50;5086562;28;9367;-66
2023/07/23 04:36:00;;;;;;;;;9.00;8.00;;;;;15.99;82.04;100457.94;5089028;28;9374;-66
2023/07/23 04:38:26;;;;;;;;;10.67;8.00;;;;;16.00;81.55;100454.13;5087850;28;9451;-67
2023/07/23 04:40:52;;;;;;;;;9.75;6.75;;;;;16.01;81.90;100447.66;5082900;28;9416;-66
2023/07/23 04:43:19;;;;;;;;;6.75;6.00;;;;;16.01;81.82;100447.66;5089191;28;9438;-67
2023/07/23 04:45:45;;;;;;;;;8.33;8.00;;;;;16.02;81.62;100446.59;5089468;28;9404;-67
2023/07/23 04:48:14;;;;;;;;;7.00;6.50;;;;;16.01;81.51;100448.50;5084552;28;11480;-67
2023/07/23 04:50:40;;;;;;;;;7.75;7.00;;;;;15.99;81.88;100436.22;5088555;28;10755;-66
2023/07/23 04:53:07;;;;;;;;;8.75;8.00;;;;;15.98;81.57;100438.09;5086622;28;9546;-67
2023/07/23 04:55:34;;;;;;;;;7.00;6.75;;;;;16.02;81.82;100452.03;5084414;28;9619;-67
2023/07/23 04:58:00;;;;;;;;;13.50;12.00;;;;;16.00;81.58;100446.84;5087224;28;9387;-67
2023/07/23 05:00:29;;;;;;;;;6.00;6.00;;;;;16.00;81.96;100437.84;5090354;28;9584;-67
2023/07/23 05:02:56;;;;;;;;;9.00;7.33;;;;;16.00;81.89;100443.28;5081407;28;9231;-66
2023/07/23 05:05:22;;;;;;;;;11.75;10.00;;;;;15.96;81.55;100436.69;5090042;28;10180;-67
2023/07/23 05:07:49;;;;;;;;;12.75;11.75;;;;;15.88;81.83;100432.47;5084560;28;9517;-67
2023/07/23 05:10:16;;;;;;;;;10.50;9.50;;;;;15.85;82.25;100429.41;5093906;28;9521;-66
2023/07/23 05:12:42;;;;;;;;;9.00;9.00;;;;;15.88;82.40;100435.19;5088355;28;9592;-67
2023/07/23 05:15:13;;;;;;;;;8.00;8.00;;;;;15.91;82.65;100437.41;5086518;28;9511;-67
2023/07/23 05:17:41;;;;;;;;;11.00;11.00;;;;;15.87;82.83;100436.22;5089152;28;9644;-66
2023/07/23 05:20:09;;;;;;;;;9.33;9.33;;;;;15.90;83.02;100435.75;5085777;28;9453;-67
2023/07/23 05:22:37;;;;;;;;;14.33;11.00;;;;;15.92;82.60;100435.50;5070604;28;9388;-66
2023/07/23 05:25:04;;;;;;;;;7.50;7.50;;;;;15.92;82.81;100430.94;5085125;28;9482;-66
2023/07/23 05:27:30;;;;;;;;;6.00;6.00;;;;;15.97;82.88;100433.75;5091808;28;9391;-66
2023/07/23 05:29:57;;;;;;;;;10.33;9.33;;;;;15.99;82.63;100425.34;5080463;28;9162;-66
2023/07/23 05:32:24;;;;;;;;;9.00;9.00;;;;;15.98;82.87;100427.25;5089663;28;9338;-67
2023/07/23 05:34:50;;;;;;;;;8.00;8.00;;;;;15.97;82.68;100428.31;5087484;28;9313;-66
2023/07/23 05:37:17;;;;;;;;;11.00;8.33;;;;;16.02;83.06;100425.69;5095226;28;9507;-67
2023/07/23 05:39:43;;;;;;;;;12.67;10.00;;;;;16.03;82.81;100421.09;5090975;28;9976;-67
2023/07/23 05:42:10;;;;;;;;;11.25;9.75;;;;;16.02;82.96;100424.88;5092225;28;9408;-67
2023/07/23 05:44:36;;;;;;;;;10.50;8.50;;;;;16.01;83.05;100426.78;5088484;28;9537;-66
2023/07/23 05:47:03;;;;;;;;;8.33;8.33;;;;;16.02;83.32;100431.13;5088141;28;9430;-67
2023/07/23 05:49:29;;;;;;;;;10.00;10.00;;;;;16.03;83.40;100432.78;5090187;28;9375;-66
2023/07/23 05:51:58;;;;;;;;;7.33;7.33;;;;;16.08;83.46;100426.63;5088728;28;9315;-66
2023/07/23 05:54:25;;;;;;;;;11.33;8.67;;;;;16.10;83.22;100432.66;5096137;28;9405;-67
2023/07/23 05:56:51;;;;;;;;;8.67;8.67;;;;;16.12;83.42;100430.50;5089763;28;9231;-67
2023/07/23 05:59:18;;;;;;;;;13.00;10.33;;;;;16.05;83.22;100430.66;5077317;28;9250;-66
2023/07/23 06:01:45;;;;;;;;;9.67;9.33;;;;;16.03;83.52;100434.66;5087805;28;10120;-66
2023/07/23 06:04:11;;;;;;;;;11.00;9.00;;;;;16.01;83.73;100434.09;5071622;28;9461;-66
2023/07/23 06:06:38;;;;;;;;;7.67;7.00;;;;;16.00;84.11;100440.56;5084714;28;9358;-66
2023/07/23 06:09:04;;;;;;;;;10.67;10.00;;;;;15.97;84.08;100432.94;5092709;28;9385;-68
2023/07/23 06:11:31;;;;;;;;;13.00;10.00;;;;;15.96;84.50;100434.81;5107572;28;9304;-67
2023/07/23 06:14:02;;;;;;;;;7.00;7.00;;;;;15.95;84.67;100435.03;5092189;28;9306;-67
2023/07/23 06:16:32;;;;;;;;;12.33;10.33;;;;;15.98;84.55;100435.38;5090062;28;9270;-66
2023/07/23 06:18:59;;;;;;;;;9.75;9.75;;;;;16.00;84.55;100438.69;5091556;28;9214;-66
2023/07/23 06:21:25;;;;;;;;;15.50;12.00;;;;;15.94;84.58;100439.66;5087437;28;9443;-66
2023/07/23 06:23:53;;;;;;;;;10.00;8.00;;;;;15.94;85.42;100438.81;5086578;28;10190;-66
2023/07/23 06:26:19;;;;;;;;;13.00;11.25;;;;;15.92;85.31;100438.22;5081649;28;10153;-66
2023/07/23 06:28:46;;;;;;;;;15.67;12.67;;;;;15.96;85.63;100442.09;5092015;28;9543;-66
2023/07/23 06:31:12;;;;;;;;;20.75;17.00;;;;;15.83;85.91;100437.78;5088267;28;9303;-66
2023/07/23 06:33:39;;;;;;;;;15.00;13.00;;;;;15.81;85.81;100431.78;5099696;28;10218;-66
2023/07/23 06:36:05;;;;;;;;;14.00;12.67;;;;;15.78;85.98;100429.53;5077856;28;9363;-66
2023/07/23 06:38:32;;;;;;;;;10.00;10.00;;;;;15.81;86.23;100440.75;5087075;28;9446;-66
2023/07/23 06:41:01;;;;;;;;;11.00;10.50;;;;;15.82;85.63;100439.66;5081217;23;9542;31
2023/07/23 06:43:27;;;;;;;;;10.33;8.67;;;;;15.83;86.07;100432.34;4988580;28;9427;-66
2023/07/23 06:45:54;;;;;;;;;8.00;8.00;;;;;15.80;86.03;100438.28;4981990;28;9476;-67
2023/07/23 06:48:27;;;;;;;;;9.00;9.00;;;;;15.80;86.33;100436.38;4991459;28;9383;-68
2023/07/23 06:50:57;;;;;;;;;8.67;8.67;;;;;15.75;86.03;100438.16;4993992;28;9320;-67
2023/07/23 06:53:24;;;;;;;;;10.25;10.25;;;;;15.76;86.02;100437.94;5000303;28;9328;-66
2023/07/23 06:56:00;;;;;;;;;8.00;8.00;;;;;15.75;86.30;100436.25;4980411;28;9497;-68
2023/07/23 06:58:28;;;;;;;;;10.00;10.00;;;;;15.76;86.38;100437.94;4992411;28;9567;-67
2023/07/23 07:00:54;;;;;;;;;10.00;9.50;;;;;15.74;86.22;100440.03;4971559;28;9321;-67
2023/07/23 07:03:21;;;;;;;;;13.75;12.25;;;;;15.73;86.20;100434.84;4972561;28;9397;-67
2023/07/23 07:05:47;;;;;;;;;12.00;9.50;;;;;15.71;86.22;100439.69;4970641;28;9555;-68
2023/07/23 07:08:14;;;;;;;;;10.75;10.25;;;;;15.67;86.60;100439.31;5002488;28;9649;-68
2023/07/23 07:10:40;;;;;;;;;11.50;10.25;;;;;15.62;86.34;100433.75;4984569;28;9427;-69
2023/07/23 07:13:07;;;;;;;;;13.50;11.00;;;;;15.64;86.96;100438.94;4972518;28;9581;-69
2023/07/23 07:15:34;;;;;;;;;9.25;9.25;;;;;15.67;87.23;100441.22;4969200;28;9623;-68
2023/07/23 07:18:00;;;;;;;;;10.75;10.75;;;;;15.67;87.46;100444.75;4971698;28;9574;-69
2023/07/23 07:20:27;;;;;;;;;11.75;11.75;;;;;15.71;87.53;100437.78;4972754;28;9655;-69
2023/07/23 07:22:53;;;;;;;;;10.00;10.00;;;;;15.75;87.19;100435.44;4969481;28;9542;-68
2023/07/23 07:25:19;;;;;;;;;8.50;8.50;;;;;15.80;87.13;100432.84;4970158;28;9590;-69
2023/07/23 07:27:48;;;;;;;;;15.75;15.75;;;;;15.81;86.95;100426.34;4972140;28;9410;-68
2023/07/23 07:30:15;;;;;;;;;12.75;10.00;;;;;15.81;86.98;100421.75;4968261;28;10210;-69
2023/07/23 07:32:42;;;;;;;;;10.25;8.00;;;;;15.87;86.96;100432.69;4990603;28;9491;-67
2023/07/23 07:35:09;;;;;;;;;9.00;9.00;;;;;15.93;87.02;100429.03;4972308;28;9454;-68
2023/07/23 07:37:35;;;;;;;;;11.75;9.00;;;;;15.94;86.51;100431.50;4969090;28;9374;-69
2023/07/23 07:40:02;;;;;;;;;11.75;10.00;;;;;15.89;86.46;100433.28;4971598;28;9385;-68
2023/07/23 07:42:29;;;;;;;;;15.25;12.75;;;;;15.84;86.59;100425.88;4982487;28;9435;-69
2023/07/23 07:44:55;;;;;;;;;12.00;11.33;;;;;15.80;86.40;100425.53;4989867;28;10307;-68
2023/07/23 07:47:22;;;;;;;;;12.25;12.25;;;;;15.75;87.31;100425.41;4992610;28;9396;-68
2023/07/23 07:49:52;;;;;;;;;16.25;14.75;;;;;15.71;87.02;100429.66;4989624;28;9609;-68
2023/07/23 07:52:18;;;;;;;;;13.00;11.75;;;;;15.70;87.40;100425.28;4991220;28;9413;-68
2023/07/23 07:54:45;;;;;;;;;11.00;11.00;;;;;15.70;87.47;100422.56;4991946;28;9539;-68
2023/07/23 07:57:12;;;;;;;;;16.00;12.50;;;;;15.74;87.52;100418.31;4990335;28;10479;-69
2023/07/23 07:59:38;;;;;;;;;13.00;13.00;;;;;15.75;87.20;100417.25;4987315;28;9632;-68
2023/07/23 08:02:06;;;;;;;;;14.00;12.00;;;;;15.79;86.83;100423.84;4990136;28;9557;-69
2023/07/23 08:04:33;;;;;;;;;12.00;9.75;;;;;15.81;86.82;100416.31;4991196;28;9485;-68
2023/07/23 08:06:59;;;;;;;;;7.25;7.25;;;;;15.82;87.28;100419.84;5017980;28;9538;-69
2023/07/23 08:09:28;;;;;;;;;9.50;9.50;;;;;15.88;86.94;100415.34;4991374;28;9493;-69
2023/07/23 08:11:55;;;;;;;;;9.75;8.25;;;;;15.90;86.59;100415.94;4991207;28;9668;-69
2023/07/23 08:14:23;;;;;;;;;13.50;13.25;;;;;15.91;86.41;100417.59;4991627;28;9523;-69
2023/07/23 08:16:53;;;;;;;;;11.50;10.50;;;;;15.96;86.39;100426.69;4990248;28;9550;-69
2023/07/23 08:19:20;;;;;;;;;12.00;9.67;;;;;16.02;86.12;100428.41;4988600;28;9541;-69
2023/07/23 08:21:47;;;;;;;;;11.00;9.75;;;;;15.99;86.09;100426.19;4988672;28;9472;-69
2023/07/23 08:24:14;;;;;;;;;9.33;8.33;;;;;16.03;85.84;100424.63;4982364;28;9458;-69
2023/07/23 08:26:42;;;;;;;;;8.00;8.00;;;;;16.02;85.93;100422.16;4990488;28;9343;-67
2023/07/23 08:29:11;;;;;;;;;13.00;10.75;;;;;16.00;85.94;100427.00;4988703;28;9480;-70
2023/07/23 08:31:38;;;;;;;;;9.50;8.75;;;;;16.02;86.07;100430.31;4998082;28;9463;-67
2023/07/23 08:34:05;;;;;;;;;11.25;10.75;;;;;16.01;85.71;100428.66;4989741;28;9380;-69
2023/07/23 08:36:32;;;;;;;;;10.75;10.00;;;;;16.01;85.66;100432.19;5004623;28;9611;-68
2023/07/23 08:38:58;;;;;;;;;8.67;7.00;;;;;16.01;85.56;100417.81;4994356;28;9382;-68
2023/07/23 08:42:05;;;;;;;;;9.00;9.00;;;;;16.04;85.25;100422.72;4981460;28;10689;-69
2023/07/23 08:44:41;;;;;;;;;12.50;10.25;;;;;16.01;85.08;100424.06;5007162;28;9522;-69
2023/07/23 08:47:12;;;;;;;;;11.67;10.67;;;;;16.04;85.38;100426.31;5009423;28;9375;-69
2023/07/23 08:49:43;;;;;;;;;9.33;9.33;;;;;16.06;85.33;100417.91;4996829;28;10209;-69
2023/07/23 08:52:11;;;;;;;;;10.67;9.33;;;;;15.99;85.55;100422.63;4988604;28;9401;-68
2023/07/23 08:54:41;;;;;;;;;9.00;9.00;;;;;15.98;85.66;100421.00;4993689;28;9319;-68
2023/07/23 08:57:09;;;;;;;;;11.00;11.00;;;;;16.06;85.70;100410.56;4993163;28;9372;-68
2023/07/23 08:59:36;;;;;;;;;13.33;10.33;;;;;16.10;85.16;100419.06;4989991;28;9534;-69
2023/07/23 09:02:03;;;;;;;;;11.00;8.75;;;;;16.12;85.50;100426.97;4989825;28;9307;-68
2023/07/23 09:04:29;;;;;;;;;7.00;6.67;;;;;16.20;85.06;100427.41;4992488;28;9418;-70
2023/07/23 09:06:57;;;;;;;;;10.67;9.00;;;;;16.24;85.16;100423.13;4989369;28;9312;-68
2023/07/23 09:09:24;;;;;;;;;12.75;11.00;;;;;16.16;85.01;100423.53;4989044;28;9321;-68
2023/07/23 09:11:50;;;;;;;;;9.67;7.67;;;;;16.20;85.34;100415.72;4990064;28;9794;-68
2023/07/23 09:14:18;;;;;;;;;11.33;10.33;;;;;16.23;85.17;100415.25;5005676;28;9394;-68
2023/07/23 09:16:47;;;;;;;;;14.25;13.25;;;;;16.24;84.97;100412.28;4990691;28;9461;-68
2023/07/23 09:19:26;;;;;;;;;12.33;12.00;;;;;16.29;85.00;100417.81;4990596;28;9605;-69
2023/07/23 09:22:00;;;;;;;;;11.00;10.00;;;;;16.31;84.53;100420.28;4989844;28;9533;-69
2023/07/23 09:24:33;;;;;;;;;17.25;15.25;;;;;16.32;84.76;100430.09;5005259;28;9470;-71
2023/07/23 09:27:03;;;;;;;;;12.75;12.00;;;;;16.32;85.25;100417.31;4990094;28;9443;-69
2023/07/23 09:29:39;;;;;;;;;19.50;17.00;;;;;16.32;84.97;100421.94;4989002;28;9404;-69
2023/07/23 09:32:22;;;;;;;;;14.50;13.50;;;;;16.31;85.05;100431.97;4988172;28;9617;-69
2023/07/23 09:34:49;;;;;;;;;17.25;17.25;;;;;16.31;85.22;100431.97;4990171;28;9533;-67
2023/07/23 09:37:16;;;;;;;;;12.00;12.00;;;;;16.38;85.55;100423.69;4990078;28;9528;-69
2023/07/23 09:39:42;;;;;;;;;19.25;14.50;;;;;16.41;85.23;100427.81;4989264;28;9306;-70
2023/07/23 09:42:11;;;;;;;;;14.00;10.50;;;;;16.46;85.09;100427.91;4989945;28;10262;-69
2023/07/23 09:44:41;;;;;;;;;17.00;14.25;;;;;16.48;84.93;100433.91;4990359;28;9445;-68
2023/07/23 09:47:08;;;;;;;;;12.25;12.25;;;;;16.49;84.91;100424.72;4989904;28;9436;-68
2023/07/23 09:49:36;;;;;;;;;18.25;14.50;;;;;16.54;85.06;100422.09;4990046;28;9500;-69
2023/07/23 09:52:07;;;;;;;;;14.67;14.67;;;;;16.51;85.15;100431.53;4990141;28;9620;-69
2023/07/23 09:54:35;;;;;;;;;13.00;13.00;;;;;16.51;85.02;100420.66;4990043;28;9482;-71
2023/07/23 09:57:02;;;;;;;;;15.33;12.67;;;;;16.51;84.86;100428.81;4989782;28;9565;-68
2023/07/23 09:59:31;;;;;;;;;11.33;11.00;;;;;16.56;85.63;100428.09;4974163;28;9498;-68
2023/07/23 10:02:00;;;;;;;;;19.50;16.00;;;;;16.62;85.37;100431.75;4993036;28;9393;-70
2023/07/23 10:04:30;;;;;;;;;17.00;14.25;;;;;16.61;85.25;100427.34;4993881;28;9438;-69
2023/07/23 10:06:57;;;;;;;;;15.00;14.75;;;;;16.60;85.54;100442.00;4994006;28;9476;-69
2023/07/23 10:09:24;;;;;;;;;15.00;15.00;;;;;16.63;85.79;100442.34;4993942;28;9406;-68
2023/07/23 10:11:50;;;;;;;;;11.67;11.67;;;;;16.66;85.80;100446.50;4993110;28;9351;-69
2023/07/23 10:14:17;;;;;;;;;14.00;14.00;;;;;16.58;86.03;100436.84;4993552;28;9320;-69
2023/07/23 10:16:44;;;;;;;;;10.33;9.67;;;;;16.55;86.99;100445.47;4993397;28;9840;-69
2023/07/23 10:19:13;;;;;;;;;14.00;10.33;;;;;16.59;86.88;100443.09;4993038;28;9221;-69
2023/07/23 10:21:40;;;;;;;;;12.67;12.00;;;;;16.61;86.91;100454.53;4992937;28;9424;-70
2023/07/23 10:24:06;;;;;;;;;10.00;10.00;;;;;16.57;87.42;100446.06;4992015;28;9236;-70
2023/07/23 10:26:41;;;;;;;;;10.33;9.67;;;;;16.62;87.52;100448.88;4993166;28;9252;-69
2023/07/23 10:29:18;;;;;;;;;15.33;13.67;;;;;16.62;87.82;100454.31;5008103;28;9272;-70
2023/07/23 10:31:45;;;;;;;;;18.00;15.67;;;;;16.61;87.71;100449.09;5007648;28;9658;-69
2023/07/23 10:34:27;;;;;;;;;14.67;13.33;;;;;16.66;87.69;100455.47;4993044;28;9551;-69
2023/07/23 10:37:14;;;;;;;;;11.33;11.33;;;;;16.66;88.05;100452.75;4991770;28;9392;-69
2023/07/23 10:39:43;;;;;;;;;12.33;12.33;;;;;16.70;87.91;100450.38;4975964;28;10187;-70
2023/07/23 10:42:10;;;;;;;;;15.33;14.00;;;;;16.70;87.75;100450.38;4992241;28;9312;-70
2023/07/23 10:44:39;;;;;;;;;18.00;15.00;;;;;16.67;88.35;100451.66;4991530;28;9812;-69
2023/07/23 10:47:29;;;;;;;;;11.00;10.33;;;;;16.71;88.42;100457.44;5008051;28;9175;-68
2023/07/23 10:50:12;;;;;;;;;14.75;14.00;;;;;16.68;88.81;100453.31;4992804;28;9441;-69
2023/07/23 10:52:38;;;;;;;;;14.00;13.00;;;;;16.65;88.96;100445.66;4992326;28;9534;-70
2023/07/23 10:55:07;;;;;;;;;15.50;15.00;;;;;16.67;88.84;100442.69;4991846;28;10020;-68
2023/07/23 10:57:42;;;;;;;;;21.50;20.00;;;;;16.66;89.43;100450.03;4992379;28;9454;-69
2023/07/23 11:00:19;;;;;;;;;16.67;14.33;;;;;16.69;89.62;100452.25;4992529;28;10094;-71
2023/07/23 11:02:53;;;;;;;;;14.67;14.67;;;;;16.70;89.60;100444.94;4992643;28;10050;-70
2023/07/23 11:05:24;;;;;;;;;17.67;16.33;;;;;16.73;90.15;100450.75;4992127;28;9419;-67
2023/07/23 11:08:29;;;;;;;;;15.33;15.33;;;;;16.76;89.58;100443.97;4992637;28;9301;-70
2023/07/23 11:10:57;;;;;;;;;18.00;16.33;;;;;16.79;89.62;100448.94;5007197;28;9455;-69
2023/07/23 11:13:34;;;;;;;;;17.33;16.67;;;;;16.77;90.40;100443.75;4991368;28;10140;-69
2023/07/23 11:16:01;;;;;;;;;15.33;15.33;;;;;16.87;90.47;100443.09;4992462;28;9474;-68
2023/07/23 11:18:30;;;;;;;;;21.00;16.67;;;;;16.87;90.84;100444.97;4992233;28;9338;-68
2023/07/23 11:20:59;;;;;;;;;24.00;22.25;;;;;16.95;91.19;100430.97;4992090;28;9867;-69
2023/07/23 11:23:26;;;;;;;;;21.75;18.75;;;;;17.07;91.24;100430.91;4992335;28;9473;-69
2023/07/23 11:25:54;;;;;;;;;24.25;19.00;;;;;17.14;91.13;100439.72;4992421;28;9577;-69
2023/07/23 11:28:22;;;;;;;;;21.33;20.33;;;;;17.21;90.58;100433.03;4991389;28;9394;-68